Makawao, HI (96768)

12:45 PM HST on July 30, 2016 (GMT -1000)
Up Country Maui | | Change Station

Elev 1562 ft 20.86 °N, 156.32 °W | Updated 9 seconds ago

Scattered Clouds
Scattered Clouds
81.4 °F
Feels Like 84 °F
N
7.2
Wind Variable Wind from ENE
Gusts 15.0 mph

Today
High -- | Low -- °F
--% Chance of Precip.
Yesterday
High -- | Low -- °F
Precip. -- in
Pressure 29.99 in
Visibility 10.0 miles
Clouds Few 3000 ft
Scattered Clouds 5500 ft
Heat Index 84 °F
Dew Point 68 °F
Humidity 65%
Rainfall 0.00 in
Snow Depth Not available.
5:59 AM 7:04 PM
Waning Crescent, 10% visible
METAR PHOG 302154Z 04020KT 10SM FEW030 SCT055 31/21 A2998 RMK AO2 PK WND 04028/2129 SLP155 T03110211
Pressure 29.99 in
Visibility 10.0 miles
Clouds Few 3000 ft
Scattered Clouds 5500 ft
Heat Index 84 °F
Dew Point 68 °F
Humidity 65%
Rainfall 0.00 in
Snow Depth Not available.
5:59 AM 7:04 PM
Waning Crescent, 10% visible
METAR PHOG 302154Z 04020KT 10SM FEW030 SCT055 31/21 A2998 RMK AO2 PK WND 04028/2129 SLP155 T03110211

10-Day Weather Forecast

Almanac

Astronomy

Jul. 30, 2016 Rise Set
Actual Time
Civil Twilight
Nautical Twilight
Astronomical Twilight
Moon
Length of Visible Light
Length of Day
Tomorrow will be .
, % of the Moon is Illuminated

Today's Extremes

State Highs State Lows

Community

WunderPhotos

Upload Photos

1,928,670 photos uploaded!

WunderBlog® & News

Nearby

Air Quality

  Air Quality AQ Index Pollutant
Not available.

Snow Depth

Station Depth Elevation

Earthquake Activity

City Distance Mag. Time & Date
Minimum magnitude displayed is 2.5.

Coastal Water Temperatures

Place Temperature

Stations

Nearby Weather Stations

Station Location Temp. Windchill Dew Point Humidity Wind Precip. Elev Updated Type
                   

Watches & Warnings

There are currently no watches in effect.